Timeline UpdatesTrip UpdatesNews PostsPvt Posts♥♥Travel TipsAdmin PostsConv PostsFollowed PostsChat RequestsBlog PostsPNR Posts

Disclaimer
Search
 
 
Sun Oct 26, 2014 05:08:07 ISTHomeTrainsΣChainsAtlasPNRForumGalleryNewsFAQTripsMembersLoginFeedback
No Recent News for this Train
Other Trains in the News **new
Latest...
.
Sun Sep 02, 2012 (03:07PM)
⇐ Return Journey: Train# 11025

11026/Pune - Bhusaval Express

Time-Table HAS CHANGED.
Sep 03 2014 (11:00AM)
Change Departure Station:
Change Arrival Station:
Post a Train Travel TipPost a Train Travel Tip **new
Post a Comment/Question/Picture/VideoPost a Comment/Question/Picture/Video
Inaugural Run
Sun Jul 01, 2012
Pantry/Catering
✕ NO Pantry Car
✓ Catering Avbl
RSA - Rake Sharing
12157/12158 Hutatma Express
Rake/Coach Composition
Loco-SLR-UR-C1-D1-D2-D3-D4-D5-D6-D7-UR-UR-UR-UR-UR-SLR
Loco
KYN WCAM-2P/3
News    PNR    Forum    Time-Table    Availability    Fare Chart    Map    Arr/Dep History    Trips    Gallery    ΣChains    X/O    Timeline    
Travel Time: 6h 20m    10 halts    Distance: 297 km    Avg Speed: 46 km/hr
Type: Mail/Express
Zone: CR/Central
Departs @ 12:45 (Avg 12m late)
Platform# 2
SMTWTFS
Lonavala/LNL 
Arrives @ 19:05 (Avg 14m late)
Platform# 2
SMTWTFS
Manmad Junction/MMR 

10 halts. 47 intermediate Stations between Lonavala and Manmad Junction

Hide intermediate Stations  Show Old Time-Table

#TrkCodeStation NameX/OArrivesAvgDepartsAvgHaltPFDay#KmSpeedElevZoneAddress
1/==/PUNEPune Junction (6)  -11:45+121-63.654556mCRPune 411001, Maharashtra
1.1/==/SVJRShivajinagar (2)  11:48-11:48-  1-61.2 54549mCRPune 411005, Maharashtra
1.2/==/KKKhadki (3)X  11:52-11:52-  1-57.6 54562mCRPune 411003, Maharashtra
1.3/==/DAPDDapodi (2)  11:54-11:54-  1-55.5 54558mCRPune 411012, Maharashtra
1.4/==/KSWDKasarwadi (2)  11:58-11:58-  1-52.2 54558mCRPune 411034, Maharashtra
1.5/==/PMPPimpri (2)X  12:01-12:01-  1-49.5 54570mCRPune 411018, Maharashtra
2/==/CCHChinchwad (4)  12:02 12:03+512:04+52 1m31-47.371573mCRPune 411033, Maharashtra
2.1/==/AKRDAkurdi (2)X  12:07-12:07-  1-44.1 71583mCRPune 411035, Maharashtra
2.2/==/DEHRDehu Road (4)  12:11-12:11-  1-39.2 71611mCRDehu 412101, Maharashtra
2.3/==/BGWBegdewadi (2)  12:14-12:14-  1-35.7 71594mCRBegdewadi, Maharashtra
2.4/==/BGWIBegdaewadi  12:14-12:14-  1-35.6 71594mCRTalegaon, Maharashtra
2.5/==/SLRWShelarwadi (2)  12:14-12:14-  1-35.3 71594mCRShelarwadi Dist. Pune, Maharashtra
2.6/==/GRWDGhorawadi (2)  12:16-12:16-  1-32.6 71596mCRGhorawadi, Maharashtra
2.7/==/TGNTalegaon (2)O  12:19-12:19-  1-29.5 71619mCRTalegaon Dabhade 410501, Maharashtra
2.8/==/VDNVadgaon (2)  12:22-12:22-  1-25.5 71623mCRVadgaon, Maharashtra
2.9/==/KNHEKanhe (2)  12:27-12:27-  1-20.5 71626mCRKanhe, Maharashtra
2.10/==/KMSTKamshet (2)  12:31-12:31-  1-15.9 71607mCRDist. Pune 410405, Maharashtra
2.11/==/MVLMalavli (2)  12:38-12:38-  1-7.1 71616mCRMalavli 410405, Maharashtra
3/==/LNLLonavala (3)»  12:43 12:44+1012:45+122 1m210.036623mCRLonavala 410401, Maharashtra
3.1/==/KADKhandala (3)  12:51-12:51-  13.7 36545mCRKhandala 410301, Maharashtra
3.2/==/MHLCMonkey Hill (2)X  13:00-13:00-  19.0 36414mCRKhandala, Maharashtra
3.3/==/NAGCNagargali  13:06-13:06-  112.7 36354mCRKhopoli, Maharashtra
3.4/==/NNCNNagnath Cabin (1)  13:12-13:12-  115.9 36289mCRDolavali Khopoli (Chinchavali Marge), Maharashtra
3.5/==/TKWThakurvadi  13:12-13:12-  116.2 36281mCRKhandala, Maharashtra
3.6/==/PDIPalasdhari (4)  13:28-13:28-  125.7 3667mCRDist Raigad, Maharashtra
4/==/KJTKarjat Junction (4)  13:36 13:33+1213:37 13:35+131 2m3128.74457mCRKarjat, Maharashtra
5/--/CHOKChowk  13:51 13:50+1413:52+141 2m1139.75144mCRChowk, Maharashtra
6/--/MHPEMohape  14:01+2014:02+201m1147.35035mCRMohape Railway Station, Maharashtra
7/--/CKHSChikhale (1)  14:09-14:10-1m1153.24913mCRKolkhe, Maharashtra
8/--/PNVLPanvel Junction (7)  14:15+1914:20+195m7157.23610mCRPanvel, Maharashtra
8.1/==/KLMCKalamboli (3)  14:28-14:28-  162.3 364mCR, Maharashtra
8.2/==/KLMGKalamboli Goods (2)  14:29-14:29-  162.9 364mCRNavi Mumbai, Maharashtra
8.3/==/NVRDNavade Road (2)  14:32-14:32-  164.7 366mCRGhotkamp Koyana vele., Maharashtra
8.4/==/TPNDTaloje Panchnand (3)  14:38-14:38-  168.1 3610mCRNavi Mumbai, Maharashtra
8.5/==/NIIJNilaje (3)  14:52-14:52-  176.7 369mCRNilaje, Maharashtra
8.6/==/DTVLDativli (2)  14:59-14:59-  180.9 367mCRKalyan Shilphata Rd, Maharashtra
8.7/==/DIDombivli (5)X  15:09-15:09-  186.4 3611mCRDombivli, Maharashtra
8.8/==/THKThakurli (2)  15:11-15:11-  187.9 3614mCRThakurli, Maharashtra
9/==/KYNKalyan Junction (8)  15:15 15:17+1815:20+195 3m4191.44310mCRKalyan 421301, Maharashtra
9.1/==/SHADShahad (2)  15:25-15:25-  194.7 4312mCRUlhasnagar, Maharashtra
9.2/==/ABYAmbivli (2)  15:29-15:29-  197.7 4322mCRAmbivli, Maharashtra
9.3/==/TLATitwala (3)  15:36-15:36-  1102.5 4317mCRTitwala, Maharashtra
9.4/==/KDVKhadavli (3)X  15:46-15:46-  1110.1 4323mCRKhadavli, Maharashtra
9.5/==/VSDVasind (2)  15:57-15:57-  1117.7 4332mCRVasind, Maharashtra
9.6/==/ASOAsangaon (3)  16:05-16:05-  1123.6 4377mCRDist. Thane, Maharashtra
9.7/==/ATGAtgaon (2)X  16:19-16:19-  1133.4 43147mCRAtgaon, Maharashtra
9.8/==/THSThansitO  16:27-16:27-  1139.3 43184mCRNational Highway 3, Maharashtra
9.9/==/KEKhardi (2)X  16:36-16:36-  1145.5 43232mCRKhardi, Maharashtra
9.10/==/OMBOombermali  16:45-16:45-  1152.1 43248mCROombermali, Maharashtra
9.11/==/KSRAKasara (4)X  16:55-16:55-  1158.9 43290mCRDist. Thane 421602, Maharashtra
9.12/==/TGR3Block & Catch Siding Cabin 3O  17:00-17:00-  1162.6 43365mCRNH-3, Maharashtra
9.13/==/TGR2Block & Catch Siding Cabin 2X  17:05-17:05-  1166.1 43473mCRNational Highway 3, Maharashtra
10/==/IGPIgatpuri (4)  17:15+917:20+115m21173.282589mCRIgatpuri 422403, Maharashtra
10.1/==/GOGhoti (2)  17:26-17:26-  1181.4 82581mCRGhoti, Maharashtra
10.2/==/PIPadli (1)X  17:32-17:32-  1189.7 82591mCRNational Highway 3, Maharashtra
10.3/==/AVAsvali (2)X  17:38-17:38-  1198.2 82578mCRAsvali, Maharashtra
10.4/==/LTLahavit (1)X  17:47-17:47-  1210.6 82587mCRWadhiware, Maharashtra
11/==/DVLDevlali (3)X  17:58 17:53+1418:00 17:55+152m11218.234561mCRDist. Nashik 422401, Maharashtra
12/==/NKNasik Road (3)X  18:08 18:05+1318:10+122 5m11223.985563mCRNashik 422101, Maharashtra
12.1/==/ODHAOdha (2)X  18:18-18:18-  1235.5 85571mCRDist. Nashik, Maharashtra
12.2/==/KWKhervadi (2)X  18:23-18:23-  1242.5 85553mCRKherwadi, Maharashtra
12.3/==/KBSNKasbe Sukene (3)  18:28-18:28-  1249.3 85548mCRKasbe Sukene, Maharashtra
12.4/==/NRNiphad (3)X  18:32-18:32-  1255.3 85550mCRNashik, Maharashtra
12.5/==/UGNUgaon (2)  18:37-18:37-  1262.3 85568mCRUgaon, Maharashtra
13/==/LSLasalgaon (3) new halt!!  18:44+1118:45+131m--1272.274592mCRLasalgaon, Maharashtra
13.1/==/SUMSummit (2)X  18:55-18:55-  1284.3 74632mCRSummit, Maharashtra
14/==/MMRManmad Junction (6)•X  19:05+1419:10+145m21296.794580mCRManmad 423104, Maharashtra
14.1/==/PNVPanevadi (2)X  19:14-19:14-  1302.4 94561mCRPanevadi, Maharashtra
14.2/==/HSLHisvahal (2)  19:19-19:19-  1310.1 94540mCRHisvahal, Maharashtra
14.3/==/PJNPanjhan (2)X  19:22-19:22-  1315.6 94514mCRPanjhan, Maharashtra
14.4/==/NGNNandgaon (3)X  19:26-19:26-  1322.0 94476mCRNandgaon, Maharashtra
14.5/==/PKEPimpar Khed (2)X  19:33-19:33-  1332.9 94462mCRPimpar Khed, Maharashtra
14.6/==/NINaydongri (2)X  19:39-19:39-  1342.7 94427mCRNaydongri, Maharashtra
14.7/==/RHNERohini (2)  19:42-19:42-  1347.3 94422mCRRohini, Maharashtra
14.8/==/HPRHirapur (2)X  19:48-19:48-  1356.3 94373mCRHirapur, Maharashtra
15/==/CSNChalisgaon Junction (3)  19:53+2119:55+212m21364.2127352mCRChalisgaon 424101, Maharashtra
15.1/==/VGLVaghli (2)  19:59-19:59-  1373.6 127331mCRVaghli, Maharashtra
16/==/KJKajgaon (3)20:04+2920:05+291m--1383.367297mCRKajgaon, Maharashtra
16.1/==/NGDNagardevla (2)X  20:11-20:11-  1390.1 67280mCRNagardevla, Maharashtra
16.2/==/GAAGalan (2)X  20:19-20:19-  1398.5 67282mCRGalan, Maharashtra
17/==/PCPachora Junction (4)X  20:28+2320:30+232m--1409.087264mCRPachora 424201, Maharashtra
17.1/==/PHQPardhande (2)  20:35-20:35-  1416.5 87243mCRPardhande, Maharashtra
17.2/==/MYJMaheji (2)X  20:40-20:40-  1423.8 87247mCRJalgaon, Maharashtra
17.3/==/MWDMhasavad (3)  20:48-20:48-  1435.7 87220mCRMhasavad, Maharashtra
17.4/==/SSShirsoli (2)X  20:55-20:55-  1445.0 87211mCRShirsoli, Maharashtra
18/==/JLJalgaon Junction (4)X  21:03+1421:05+142m31456.832213mCRJalgaon 425001, Maharashtra
18.1/==/TRWTarsodX  21:14-21:14-  1461.5 32206mCRAsoda - Tarsod Road, Maharashtra
18.2/==/BDIBhadli (2)  21:26-21:26-  1468.2 32211mCRBhadli, Maharashtra
19/==/BSLBhusaval Junction (8)  21:50+2-11480.9-208mCRBhusaval 425201, Maharashtra
Scroll to Top
Scroll to Bottom